Flight Track Log - Related Links

Times and Time Zones

All times are in EST time to prevent confusion due to time zone crossing. See the LOG6847 flight status page for this flight to view local times or setup timezone preferences in your user account.

Time Position Orientation Groundspeed Altitude Reporting Facility
EST Latitude Longitude Course Direction KTS MPH feet Rate Location/Type
Mon 11:25:21 AM 55.8692 -4.4381 235° Southwest 1 1 500  Level FlightAware UK
Mon 11:25:39 AM 55.8647 -4.4495 235° Southwest 1 1 800 1,000 Climbing FlightAware UK
Mon 11:25:57 AM 55.8607 -4.4611 238° Southwest 1 1 1,100 1,000 Climbing FlightAware UK
Mon 11:26:15 AM 55.8571 -4.4717 239° Southwest 1 1 1,400 833 Climbing FlightAware UK
Mon 11:26:33 AM 55.8528 -4.4822 234° Southwest 1 1 1,600 857 Climbing FlightAware UK
Mon 11:26:57 AM 55.8473 -4.4970 236° Southwest 1 1 2,000 1,143 Climbing FlightAware UK
Mon 11:27:15 AM 55.8436 -4.5085 240° Southwest 1 1 2,400 1,000 Climbing FlightAware UK
Mon 11:27:33 AM 55.8400 -4.5203 241° Southwest 1 1 2,600 857 Climbing FlightAware UK
Mon 11:27:57 AM 55.8348 -4.5361 239° Southwest 1 1 3,000 857 Climbing FlightAware UK
Mon 11:28:15 AM 55.8307 -4.5476 238° Southwest 1 1 3,200 833 Climbing FlightAware UK
Mon 11:28:33 AM 55.8266 -4.5590 237° Southwest 1 1 3,500 833 Climbing FlightAware UK
Mon 11:28:51 AM 55.8222 -4.5705 236° Southwest 1 1 3,700 667 Climbing FlightAware UK
Mon 11:29:09 AM 55.8177 -4.5822 236° Southwest 1 1 3,900 833 Climbing FlightAware UK
Mon 11:29:27 AM 55.8136 -4.5945 239° Southwest 1 1 4,200 857 Climbing FlightAware UK
Mon 11:29:51 AM 55.8082 -4.6109 239° Southwest 1 1 4,500 875 Climbing FlightAware UK
Mon 11:30:15 AM 55.8031 -4.6272 241° Southwest 1 1 4,900 857 Climbing FlightAware UK
Mon 11:30:33 AM 55.7994 -4.6398 243° Southwest 1 1 5,100 571 Climbing FlightAware UK
Mon 11:30:57 AM 55.7943 -4.6568 242° Southwest 1 1 5,300 429 Climbing FlightAware UK
Mon 11:31:15 AM 55.7894 -4.6696 236° Southwest 1 1 5,400 500 Climbing FlightAware UK
Mon 11:31:33 AM 55.7848 -4.6818 236° Southwest 1 1 5,600 375 Climbing FlightAware UK
Mon 11:32:03 AM 55.7774 -4.7021 237° Southwest 1 1 5,700 375 Climbing FlightAware UK
Mon 11:32:21 AM 55.7733 -4.7145 239° Southwest 1 1 5,900 500 Climbing FlightAware UK
Mon 11:32:39 AM 55.7692 -4.7272 240° Southwest 1 1 6,000 143 Climbing FlightAware UK
Mon 11:33:03 AM 55.7629 -4.7472 241° Southwest 1 1 6,000 143 Level FlightAware UK
Mon 11:33:21 AM 55.7582 -4.7630 242° Southwest 1 1 6,100 167 Climbing FlightAware UK
Mon 11:33:39 AM 55.7528 -4.7790 239° Southwest 1 1 6,100 -167 Level FlightAware UK
Mon 11:33:57 AM 55.7472 -4.7947 238° Southwest 1 1 6,000 -500 Descending FlightAware UK
Mon 11:34:15 AM 55.7415 -4.8107 237° Southwest 1 1 5,800 -167 Descending FlightAware UK
Mon 11:34:33 AM 55.7357 -4.8263 237° Southwest 1 1 5,900 167 Climbing FlightAware UK
Mon 11:34:51 AM 55.7298 -4.8413 235° Southwest 1 1 5,900  Level FlightAware UK
Mon 11:35:09 AM 55.7240 -4.8555 234° Southwest 1 1 5,900  Level FlightAware UK
Mon 11:35:39 AM 55.7154 -4.8777 236° Southwest 1 1 5,900 125 Level FlightAware UK
Mon 11:35:57 AM 55.7105 -4.8906 236° Southwest 1 1 6,000 167 Climbing FlightAware UK
Mon 11:36:15 AM 55.7055 -4.9039 237° Southwest 1 1 6,000  Level FlightAware UK
Mon 11:36:45 AM 55.6973 -4.9278 239° Southwest 1 1 6,000 125 Level FlightAware UK
Mon 11:37:03 AM 55.6913 -4.9430 235° Southwest 1 1 6,100 333 Climbing FlightAware UK
Mon 11:37:21 AM 55.6853 -4.9583 235° Southwest 1 1 6,200  Climbing FlightAware UK
Mon 11:37:39 AM 55.6794 -4.9751 238° Southwest 1 1 6,100 -333 Descending FlightAware UK
Mon 11:37:57 AM 55.6736 -4.9919 238° Southwest 1 1 6,000  Descending FlightAware UK
Mon 11:38:15 AM 55.6675 -5.0091 238° Southwest 1 1 6,100 -143 Climbing FlightAware UK
Mon 11:38:39 AM 55.6599 -5.0314 239° Southwest 1 1 5,900 -143 Descending FlightAware UK
Mon 11:38:57 AM 55.6548 -5.0465 239° Southwest 1 1 6,000 125 Climbing FlightAware UK
Mon 11:39:27 AM 55.6456 -5.0688 234° Southwest 1 1 6,000 100 Level FlightAware UK
Mon 11:39:57 AM 55.6373 -5.0924 238° Southwest 1 1 6,100  Climbing FlightAware UK
Mon 11:40:33 AM 55.6255 -5.1243 237° Southwest 1 1 6,000 -111 Descending FlightAware UK
Mon 11:40:51 AM 55.6193 -5.1415 238° Southwest 1 1 6,000  Level FlightAware UK
Mon 11:41:09 AM 55.6135 -5.1576 237° Southwest 1 1 6,000  Level FlightAware UK
Mon 11:41:27 AM 55.6080 -5.1728 237° Southwest 1 1 6,000  Level FlightAware UK
Mon 11:41:45 AM 55.6025 -5.1878 237° Southwest 1 1 6,000  Level FlightAware UK
Mon 11:42:09 AM 55.5949 -5.2069 235° Southwest 1 1 6,000 -429 Level FlightAware UK
Mon 11:42:27 AM 55.5898 -5.2218 239° Southwest 1 1 5,700 -667 Descending FlightAware UK
Mon 11:42:45 AM 55.5833 -5.2373 234° Southwest 1 1 5,600 -500 Descending FlightAware UK
Mon 11:43:03 AM 55.5764 -5.2520 230° Southwest 1 1 5,400 -625 Descending FlightAware UK
Mon 11:43:33 AM 55.5654 -5.2785 234° Southwest 1 1 5,100 -667 Descending FlightAware UK
Mon 11:43:57 AM 55.5569 -5.3016 237° Southwest 1 1 4,800 -667 Descending FlightAware UK
Mon 11:44:45 AM 55.5362 -5.3463 231° Southwest 1 1 4,300 -636 Descending FlightAware UK
Mon 11:45:03 AM 55.5263 -5.3607 219° Southwest 1 1 4,100 -667 Descending FlightAware UK
Mon 11:45:21 AM 55.5161 -5.3746 218° Southwest 1 1 3,900 -667 Descending FlightAware UK
Mon 11:45:39 AM 55.5057 -5.3881 216° Southwest 1 1 3,700 -1,000 Descending FlightAware UK
Mon 11:45:57 AM 55.4951 -5.4014 215° Southwest 1 1 3,300 -1,167 Descending FlightAware UK
Mon 11:46:15 AM 55.4846 -5.4150 216° Southwest 1 1 3,000 -1,000 Descending FlightAware UK
Mon 11:48:00 AM 55.4725 -5.4846 253° West  Level Estimated
Mon 11:55:00 AM 55.4372 -5.6864 253° West  Level Estimated
Mon 11:56:00 AM 55.4372 -5.6864 16° North  Level Estimated
Mon 11:57:00 AM 55.4372 -5.6864 16° North  Level Estimated
Mon 11:58:00 AM 55.4372 -5.6864 16° North  Level Estimated
Mon 11:59:00 AM 55.4372 -5.6864 16° North  Level Estimated
Mon 12:00:00 PM 55.4372 -5.6864 16° North  Level Estimated
Mon 12:01:00 PM 55.4372 -5.6864 16° North  Level Estimated
Mon 12:02:00 PM 55.4372 -5.6864 16° North  Level Estimated
Mon 12:03:00 PM 55.4372 -5.6864 16° North  Level Estimated
Mon 12:04:00 PM 55.4372 -5.6864 16° North  Level Estimated
Mon 12:05:00 PM 55.4372 -5.6864 16° North  Level Estimated
Mon 12:06:00 PM 55.4372 -5.6864 16° North  Level Estimated
Mon 12:07:00 PM 55.4372 -5.6864 16° North  Level Estimated
Mon 12:08:00 PM 55.4372 -5.6864 16° North  Level Estimated
Mon 12:09:00 PM 55.4372 -5.6864 16° North  Level Estimated
Mon 12:10:00 PM 55.4372 -5.6864 16° North  Level Estimated
Mon 12:11:00 PM 55.4372 -5.6864 16° North  Level Estimated
Mon 12:12:00 PM 55.4372 -5.6864 16° North  Level Estimated
Mon 12:13:00 PM 55.4372 -5.6864 16° North  Level Estimated
Mon 12:14:00 PM 55.4372 -5.6864 16° North  Level Estimated
Mon 12:15:00 PM 55.4372 -5.6864 16° North  Level Estimated

Login

Don't have an account? Register now (free) for customized features, flight alerts, and more!